sensor_id;sensor_type;location;lat;lon;timestamp;pressure;altitude;pressure_sealevel;temperature;humidity
66090;BME280;53113;45.602;11.904;2022-08-01T00:01:54;101239.73;;;24.37;52.60
66090;BME280;53113;45.602;11.904;2022-08-01T00:04:20;101240.46;;;24.39;53.31
66090;BME280;53113;45.602;11.904;2022-08-01T00:06:45;101238.91;;;24.40;53.38
66090;BME280;53113;45.602;11.904;2022-08-01T00:09:11;101235.98;;;24.38;53.33
66090;BME280;53113;45.602;11.904;2022-08-01T00:11:37;101241.34;;;24.39;53.23
66090;BME280;53113;45.602;11.904;2022-08-01T00:14:03;101239.64;;;24.37;53.58
66090;BME280;53113;45.602;11.904;2022-08-01T00:16:29;101237.33;;;24.35;53.86
66090;BME280;53113;45.602;11.904;2022-08-01T00:18:55;101240.63;;;24.32;53.90
66090;BME280;53113;45.602;11.904;2022-08-01T00:21:21;101234.63;;;24.28;54.06
66090;BME280;53113;45.602;11.904;2022-08-01T00:23:47;101243.17;;;24.26;54.02
66090;BME280;53113;45.602;11.904;2022-08-01T00:26:13;101241.96;;;24.23;53.87
66090;BME280;53113;45.602;11.904;2022-08-01T00:28:40;101240.19;;;24.20;54.26
66090;BME280;53113;45.602;11.904;2022-08-01T00:31:06;101238.01;;;24.15;54.38
66090;BME280;53113;45.602;11.904;2022-08-01T00:33:32;101238.45;;;24.12;54.47
66090;BME280;53113;45.602;11.904;2022-08-01T00:35:58;101243.05;;;24.09;54.73
66090;BME280;53113;45.602;11.904;2022-08-01T00:38:24;101241.13;;;24.05;54.72
66090;BME280;53113;45.602;11.904;2022-08-01T00:40:50;101241.08;;;24.01;54.82
66090;BME280;53113;45.602;11.904;2022-08-01T00:43:15;101237.76;;;23.99;54.82
66090;BME280;53113;45.602;11.904;2022-08-01T00:45:42;101234.48;;;23.99;54.91
66090;BME280;53113;45.602;11.904;2022-08-01T00:48:08;101236.85;;;23.99;55.09
66090;BME280;53113;45.602;11.904;2022-08-01T00:50:34;101239.58;;;23.97;55.56
66090;BME280;53113;45.602;11.904;2022-08-01T00:53:01;101241.43;;;23.95;55.73
66090;BME280;53113;45.602;11.904;2022-08-01T00:55:28;101242.28;;;23.93;56.10
66090;BME280;53113;45.602;11.904;2022-08-01T00:57:55;101236.20;;;23.89;56.24
66090;BME280;53113;45.602;11.904;2022-08-01T01:00:21;101235.39;;;23.86;56.43
66090;BME280;53113;45.602;11.904;2022-08-01T01:02:47;101241.67;;;23.82;56.43
66090;BME280;53113;45.602;11.904;2022-08-01T01:05:13;101242.34;;;23.78;56.38
66090;BME280;53113;45.602;11.904;2022-08-01T01:10:25;101244.11;;;23.72;56.67
66090;BME280;53113;45.602;11.904;2022-08-01T01:15:45;101239.67;;;23.71;56.64
66090;BME280;53113;45.602;11.904;2022-08-01T01:20:57;101232.53;;;23.67;57.12
66090;BME280;53113;45.602;11.904;2022-08-01T01:23:44;101235.48;;;23.66;57.19
66090;BME280;53113;45.602;11.904;2022-08-01T01:26:50;101237.48;;;23.63;57.29
66090;BME280;53113;45.602;11.904;2022-08-01T01:29:25;101236.23;;;23.60;57.41
66090;BME280;53113;45.602;11.904;2022-08-01T01:32:06;101236.91;;;23.56;57.44
66090;BME280;53113;45.602;11.904;2022-08-01T01:34:36;101236.80;;;23.52;57.60
66090;BME280;53113;45.602;11.904;2022-08-01T01:37:06;101233.34;;;23.51;57.60
66090;BME280;53113;45.602;11.904;2022-08-01T01:39:35;101232.59;;;23.51;57.48
66090;BME280;53113;45.602;11.904;2022-08-01T01:42:05;101233.70;;;23.51;57.53
66090;BME280;53113;45.602;11.904;2022-08-01T01:44:32;101234.05;;;23.49;57.54
66090;BME280;53113;45.602;11.904;2022-08-01T01:46:59;101236.56;;;23.48;57.82
66090;BME280;53113;45.602;11.904;2022-08-01T01:49:27;101235.67;;;23.45;57.87
66090;BME280;53113;45.602;11.904;2022-08-01T01:51:55;101235.30;;;23.42;57.95
66090;BME280;53113;45.602;11.904;2022-08-01T01:54:23;101241.27;;;23.39;57.89
66090;BME280;53113;45.602;11.904;2022-08-01T01:56:51;101237.06;;;23.37;57.99
66090;BME280;53113;45.602;11.904;2022-08-01T01:59:27;101234.27;;;23.33;58.19
66090;BME280;53113;45.602;11.904;2022-08-01T02:01:57;101231.17;;;23.32;58.52
66090;BME280;53113;45.602;11.904;2022-08-01T02:04:26;101236.04;;;23.31;58.64
66090;BME280;53113;45.602;11.904;2022-08-01T02:06:53;101239.02;;;23.31;58.83
66090;BME280;53113;45.602;11.904;2022-08-01T02:09:21;101239.38;;;23.29;58.92
66090;BME280;53113;45.602;11.904;2022-08-01T02:11:48;101243.58;;;23.27;59.04
66090;BME280;53113;45.602;11.904;2022-08-01T02:14:15;101243.67;;;23.25;59.16
66090;BME280;53113;45.602;11.904;2022-08-01T02:16:45;101241.20;;;23.22;59.26
66090;BME280;53113;45.602;11.904;2022-08-01T02:19:13;101239.76;;;23.19;59.33
66090;BME280;53113;45.602;11.904;2022-08-01T02:22:00;101237.23;;;23.15;59.43
66090;BME280;53113;45.602;11.904;2022-08-01T02:27:10;101231.84;;;23.08;59.50
66090;BME280;53113;45.602;11.904;2022-08-01T02:29:49;101231.52;;;23.09;59.36
66090;BME280;53113;45.602;11.904;2022-08-01T02:32:25;101225.88;;;23.08;59.11
66090;BME280;53113;45.602;11.904;2022-08-01T02:34:53;101220.71;;;23.08;59.09
66090;BME280;53113;45.602;11.904;2022-08-01T02:37:22;101217.75;;;23.04;58.97
66090;BME280;53113;45.602;11.904;2022-08-01T02:39:52;101219.41;;;23.02;59.06
66090;BME280;53113;45.602;11.904;2022-08-01T02:42:20;101216.34;;;22.98;59.10
66090;BME280;53113;45.602;11.904;2022-08-01T02:44:48;101222.21;;;22.93;59.06
66090;BME280;53113;45.602;11.904;2022-08-01T02:47:16;101220.83;;;22.89;59.16
66090;BME280;53113;45.602;11.904;2022-08-01T02:49:47;101229.48;;;22.84;59.03
66090;BME280;53113;45.602;11.904;2022-08-01T02:52:14;101235.44;;;22.78;58.94
66090;BME280;53113;45.602;11.904;2022-08-01T02:54:43;101233.86;;;22.73;58.96
66090;BME280;53113;45.602;11.904;2022-08-01T02:57:13;101230.72;;;22.67;59.15
66090;BME280;53113;45.602;11.904;2022-08-01T02:59:41;101234.07;;;22.63;59.26
66090;BME280;53113;45.602;11.904;2022-08-01T03:02:08;101229.73;;;22.61;59.50
66090;BME280;53113;45.602;11.904;2022-08-01T03:04:37;101230.92;;;22.59;59.64
66090;BME280;53113;45.602;11.904;2022-08-01T03:07:05;101230.91;;;22.56;59.81
66090;BME280;53113;45.602;11.904;2022-08-01T03:09:35;101226.89;;;22.52;59.78
66090;BME280;53113;45.602;11.904;2022-08-01T03:12:04;101227.30;;;22.48;59.86
66090;BME280;53113;45.602;11.904;2022-08-01T03:14:35;101228.73;;;22.44;60.01
66090;BME280;53113;45.602;11.904;2022-08-01T03:17:02;101230.60;;;22.40;60.03
66090;BME280;53113;45.602;11.904;2022-08-01T03:19:30;101231.08;;;22.36;60.26
66090;BME280;53113;45.602;11.904;2022-08-01T03:21:57;101225.64;;;22.32;60.30
66090;BME280;53113;45.602;11.904;2022-08-01T03:24:25;101225.83;;;22.29;60.34
66090;BME280;53113;45.602;11.904;2022-08-01T03:26:56;101230.40;;;22.28;60.39
66090;BME280;53113;45.602;11.904;2022-08-01T03:29:26;101225.91;;;22.26;60.31
66090;BME280;53113;45.602;11.904;2022-08-01T03:31:53;101234.17;;;22.25;60.25
66090;BME280;53113;45.602;11.904;2022-08-01T03:34:19;101226.75;;;22.22;60.39
66090;BME280;53113;45.602;11.904;2022-08-01T03:36:56;101225.08;;;22.19;60.53
66090;BME280;53113;45.602;11.904;2022-08-01T03:39:31;101226.33;;;22.15;60.52
66090;BME280;53113;45.602;11.904;2022-08-01T03:42:03;101227.41;;;22.12;60.41
66090;BME280;53113;45.602;11.904;2022-08-01T03:44:33;101226.97;;;22.08;60.63
66090;BME280;53113;45.602;11.904;2022-08-01T03:47:05;101221.70;;;22.05;60.62
66090;BME280;53113;45.602;11.904;2022-08-01T03:49:35;101227.92;;;22.04;60.59
66090;BME280;53113;45.602;11.904;2022-08-01T03:52:05;101233.37;;;22.04;60.62
66090;BME280;53113;45.602;11.904;2022-08-01T03:54:35;101232.14;;;22.02;60.59
66090;BME280;53113;45.602;11.904;2022-08-01T03:57:02;101236.14;;;22.00;60.81
66090;BME280;53113;45.602;11.904;2022-08-01T03:59:30;101237.61;;;21.99;60.88
66090;BME280;53113;45.602;11.904;2022-08-01T04:01:57;101240.86;;;21.96;60.93
66090;BME280;53113;45.602;11.904;2022-08-01T04:04:24;101237.73;;;21.93;61.11
66090;BME280;53113;45.602;11.904;2022-08-01T04:06:49;101240.05;;;21.92;61.10
66090;BME280;53113;45.602;11.904;2022-08-01T04:09:20;101244.16;;;21.93;60.94
66090;BME280;53113;45.602;11.904;2022-08-01T04:11:47;101243.04;;;21.94;60.85
66090;BME280;53113;45.602;11.904;2022-08-01T04:14:13;101238.38;;;21.93;60.78
66090;BME280;53113;45.602;11.904;2022-08-01T04:16:39;101244.13;;;21.92;60.77
66090;BME280;53113;45.602;11.904;2022-08-01T04:19:05;101241.00;;;21.91;60.71
66090;BME280;53113;45.602;11.904;2022-08-01T04:21:34;101245.48;;;21.90;60.86
66090;BME280;53113;45.602;11.904;2022-08-01T04:24:03;101244.66;;;21.88;60.78
66090;BME280;53113;45.602;11.904;2022-08-01T04:26:32;101246.13;;;21.85;60.88
66090;BME280;53113;45.602;11.904;2022-08-01T04:29:01;101242.22;;;21.83;60.85
66090;BME280;53113;45.602;11.904;2022-08-01T04:31:29;101243.61;;;21.82;61.03
66090;BME280;53113;45.602;11.904;2022-08-01T04:33:56;101248.33;;;21.84;61.11
66090;BME280;53113;45.602;11.904;2022-08-01T04:36:23;101247.46;;;21.88;61.06
66090;BME280;53113;45.602;11.904;2022-08-01T04:38:54;101247.17;;;21.92;61.15
66090;BME280;53113;45.602;11.904;2022-08-01T04:41:22;101244.02;;;21.95;61.13
66090;BME280;53113;45.602;11.904;2022-08-01T04:43:49;101245.99;;;21.98;61.23
66090;BME280;53113;45.602;11.904;2022-08-01T04:46:17;101250.03;;;22.00;61.31
66090;BME280;53113;45.602;11.904;2022-08-01T04:48:44;101250.86;;;22.02;61.25
66090;BME280;53113;45.602;11.904;2022-08-01T04:51:12;101259.53;;;22.05;61.26
66090;BME280;53113;45.602;11.904;2022-08-01T04:53:41;101257.18;;;22.09;61.41
66090;BME280;53113;45.602;11.904;2022-08-01T04:56:08;101256.46;;;22.13;61.52
66090;BME280;53113;45.602;11.904;2022-08-01T04:58:34;101258.63;;;22.19;61.54
66090;BME280;53113;45.602;11.904;2022-08-01T05:01:00;101261.42;;;22.26;61.44
66090;BME280;53113;45.602;11.904;2022-08-01T05:03:26;101259.73;;;22.33;61.33
66090;BME280;53113;45.602;11.904;2022-08-01T05:05:52;101258.38;;;22.39;61.19
66090;BME280;53113;45.602;11.904;2022-08-01T05:08:17;101260.91;;;22.44;61.21
66090;BME280;53113;45.602;11.904;2022-08-01T05:10:43;101258.00;;;22.49;61.16
66090;BME280;53113;45.602;11.904;2022-08-01T05:13:09;101261.10;;;22.58;61.13
66090;BME280;53113;45.602;11.904;2022-08-01T05:15:35;101265.41;;;22.65;61.04
66090;BME280;53113;45.602;11.904;2022-08-01T05:18:04;101263.42;;;22.71;60.78
66090;BME280;53113;45.602;11.904;2022-08-01T05:20:30;101264.05;;;22.76;60.75
66090;BME280;53113;45.602;11.904;2022-08-01T05:22:56;101263.80;;;22.80;60.61
66090;BME280;53113;45.602;11.904;2022-08-01T05:25:22;101265.36;;;22.87;60.53
66090;BME280;53113;45.602;11.904;2022-08-01T05:27:49;101269.23;;;22.95;60.40
66090;BME280;53113;45.602;11.904;2022-08-01T05:30:15;101268.99;;;23.01;60.31
66090;BME280;53113;45.602;11.904;2022-08-01T05:32:42;101272.11;;;23.07;60.26
66090;BME280;53113;45.602;11.904;2022-08-01T05:35:08;101270.30;;;23.16;60.11
66090;BME280;53113;45.602;11.904;2022-08-01T05:37:34;101266.98;;;23.21;59.94
66090;BME280;53113;45.602;11.904;2022-08-01T05:40:01;101262.77;;;23.29;59.76
66090;BME280;53113;45.602;11.904;2022-08-01T05:42:26;101263.56;;;23.39;59.75
66090;BME280;53113;45.602;11.904;2022-08-01T05:44:52;101261.83;;;23.46;59.58
66090;BME280;53113;45.602;11.904;2022-08-01T05:47:18;101265.15;;;23.54;59.63
66090;BME280;53113;45.602;11.904;2022-08-01T05:49:45;101266.38;;;23.66;59.41
66090;BME280;53113;45.602;11.904;2022-08-01T05:52:11;101266.20;;;23.79;59.37
66090;BME280;53113;45.602;11.904;2022-08-01T05:54:37;101269.88;;;23.93;59.17
66090;BME280;53113;45.602;11.904;2022-08-01T05:57:04;101267.85;;;24.07;59.07
66090;BME280;53113;45.602;11.904;2022-08-01T05:59:30;101266.59;;;24.18;59.09
66090;BME280;53113;45.602;11.904;2022-08-01T06:01:56;101267.97;;;24.30;59.05
66090;BME280;53113;45.602;11.904;2022-08-01T06:04:22;101263.39;;;24.39;58.75
66090;BME280;53113;45.602;11.904;2022-08-01T06:06:48;101257.86;;;24.53;58.48
66090;BME280;53113;45.602;11.904;2022-08-01T06:09:14;101262.72;;;24.64;58.71
66090;BME280;53113;45.602;11.904;2022-08-01T06:11:40;101264.20;;;24.76;58.42
66090;BME280;53113;45.602;11.904;2022-08-01T06:14:05;101267.45;;;24.86;58.36
66090;BME280;53113;45.602;11.904;2022-08-01T06:16:32;101269.17;;;24.98;58.41
66090;BME280;53113;45.602;11.904;2022-08-01T06:18:57;101268.62;;;25.09;58.09
66090;BME280;53113;45.602;11.904;2022-08-01T06:21:23;101266.45;;;25.19;58.06
66090;BME280;53113;45.602;11.904;2022-08-01T06:23:49;101261.26;;;25.31;57.49
66090;BME280;53113;45.602;11.904;2022-08-01T06:26:17;101267.44;;;25.45;57.54
66090;BME280;53113;45.602;11.904;2022-08-01T06:28:43;101270.30;;;25.58;57.35
66090;BME280;53113;45.602;11.904;2022-08-01T06:31:09;101271.45;;;25.70;57.37
66090;BME280;53113;45.602;11.904;2022-08-01T06:33:37;101270.21;;;25.83;57.30
66090;BME280;53113;45.602;11.904;2022-08-01T06:36:03;101265.64;;;25.97;57.12
66090;BME280;53113;45.602;11.904;2022-08-01T06:38:29;101265.20;;;26.11;57.29
66090;BME280;53113;45.602;11.904;2022-08-01T06:40:54;101265.85;;;26.25;57.43
66090;BME280;53113;45.602;11.904;2022-08-01T06:43:20;101266.55;;;26.40;57.05
66090;BME280;53113;45.602;11.904;2022-08-01T06:45:46;101270.05;;;26.56;57.02
66090;BME280;53113;45.602;11.904;2022-08-01T06:48:12;101265.21;;;26.69;57.01
66090;BME280;53113;45.602;11.904;2022-08-01T06:50:38;101274.30;;;26.85;56.75
66090;BME280;53113;45.602;11.904;2022-08-01T06:53:04;101269.91;;;26.98;56.64
66090;BME280;53113;45.602;11.904;2022-08-01T06:55:30;101271.92;;;27.14;56.39
66090;BME280;53113;45.602;11.904;2022-08-01T06:57:56;101269.94;;;27.31;55.89
66090;BME280;53113;45.602;11.904;2022-08-01T07:00:24;101273.31;;;27.48;55.68
66090;BME280;53113;45.602;11.904;2022-08-01T07:02:55;101275.18;;;27.65;55.47
66090;BME280;53113;45.602;11.904;2022-08-01T07:05:22;101277.98;;;27.81;55.41
66090;BME280;53113;45.602;11.904;2022-08-01T07:07:48;101280.75;;;27.97;55.21
66090;BME280;53113;45.602;11.904;2022-08-01T07:10:14;101280.30;;;28.14;55.08
66090;BME280;53113;45.602;11.904;2022-08-01T07:12:40;101275.20;;;28.29;54.93
66090;BME280;53113;45.602;11.904;2022-08-01T07:15:07;101278.43;;;28.47;54.66
66090;BME280;53113;45.602;11.904;2022-08-01T07:17:40;101281.09;;;28.68;54.50
66090;BME280;53113;45.602;11.904;2022-08-01T07:20:08;101280.14;;;28.89;54.13
66090;BME280;53113;45.602;11.904;2022-08-01T07:22:35;101277.46;;;29.07;53.92
66090;BME280;53113;45.602;11.904;2022-08-01T07:25:01;101275.28;;;29.24;53.77
66090;BME280;53113;45.602;11.904;2022-08-01T07:27:27;101274.41;;;29.45;53.26
66090;BME280;53113;45.602;11.904;2022-08-01T07:29:53;101274.24;;;29.63;53.29
66090;BME280;53113;45.602;11.904;2022-08-01T07:32:19;101272.64;;;29.85;52.75
66090;BME280;53113;45.602;11.904;2022-08-01T07:34:44;101268.88;;;30.08;52.33
66090;BME280;53113;45.602;11.904;2022-08-01T07:37:10;101266.02;;;30.31;51.88
66090;BME280;53113;45.602;11.904;2022-08-01T07:39:36;101265.09;;;30.51;51.35
66090;BME280;53113;45.602;11.904;2022-08-01T07:42:02;101269.55;;;30.76;50.79
66090;BME280;53113;45.602;11.904;2022-08-01T07:44:27;101263.96;;;30.96;50.15
66090;BME280;53113;45.602;11.904;2022-08-01T07:46:53;101257.98;;;31.13;49.71
66090;BME280;53113;45.602;11.904;2022-08-01T07:49:19;101264.70;;;31.37;49.25
66090;BME280;53113;45.602;11.904;2022-08-01T07:51:47;101255.28;;;31.58;48.79
66090;BME280;53113;45.602;11.904;2022-08-01T07:54:13;101255.41;;;31.76;48.22
66090;BME280;53113;45.602;11.904;2022-08-01T07:56:38;101254.88;;;31.93;47.54
66090;BME280;53113;45.602;11.904;2022-08-01T07:59:04;101253.49;;;32.09;47.35
66090;BME280;53113;45.602;11.904;2022-08-01T08:01:30;101252.64;;;32.24;46.68
66090;BME280;53113;45.602;11.904;2022-08-01T08:03:56;101248.67;;;32.39;46.10
66090;BME280;53113;45.602;11.904;2022-08-01T08:06:22;101247.94;;;32.50;45.59
66090;BME280;53113;45.602;11.904;2022-08-01T08:08:48;101248.11;;;32.64;45.43
66090;BME280;53113;45.602;11.904;2022-08-01T08:11:13;101247.50;;;32.76;45.28
66090;BME280;53113;45.602;11.904;2022-08-01T08:13:39;101249.82;;;32.92;44.83
66090;BME280;53113;45.602;11.904;2022-08-01T08:16:05;101247.86;;;33.08;44.75
66090;BME280;53113;45.602;11.904;2022-08-01T08:18:31;101250.99;;;33.25;44.55
66090;BME280;53113;45.602;11.904;2022-08-01T08:20:56;101249.14;;;33.42;44.20
66090;BME280;53113;45.602;11.904;2022-08-01T08:23:22;101251.80;;;33.54;43.74
66090;BME280;53113;45.602;11.904;2022-08-01T08:26:06;101245.75;;;33.70;43.15
66090;BME280;53113;45.602;11.904;2022-08-01T08:28:32;101244.10;;;33.80;42.50
66090;BME280;53113;45.602;11.904;2022-08-01T08:30:58;101244.20;;;33.91;41.85
66090;BME280;53113;45.602;11.904;2022-08-01T08:33:24;101246.88;;;34.04;41.41
66090;BME280;53113;45.602;11.904;2022-08-01T08:35:49;101242.83;;;34.15;41.36
66090;BME280;53113;45.602;11.904;2022-08-01T08:38:15;101242.23;;;34.24;41.01
66090;BME280;53113;45.602;11.904;2022-08-01T08:40:41;101243.73;;;34.39;40.29
66090;BME280;53113;45.602;11.904;2022-08-01T08:43:07;101243.98;;;34.47;39.72
66090;BME280;53113;45.602;11.904;2022-08-01T08:45:33;101243.23;;;34.61;39.22
66090;BME280;53113;45.602;11.904;2022-08-01T08:48:00;101239.48;;;34.72;38.94
66090;BME280;53113;45.602;11.904;2022-08-01T08:50:27;101244.30;;;34.81;38.57
66090;BME280;53113;45.602;11.904;2022-08-01T08:52:54;101246.67;;;34.92;38.23
66090;BME280;53113;45.602;11.904;2022-08-01T08:55:20;101249.85;;;35.02;37.61
66090;BME280;53113;45.602;11.904;2022-08-01T08:57:47;101247.41;;;35.10;37.47
66090;BME280;53113;45.602;11.904;2022-08-01T09:00:13;101247.77;;;35.23;36.86
66090;BME280;53113;45.602;11.904;2022-08-01T09:02:44;101243.45;;;35.34;36.45
66090;BME280;53113;45.602;11.904;2022-08-01T09:05:10;101245.77;;;35.45;35.81
66090;BME280;53113;45.602;11.904;2022-08-01T09:07:37;101244.14;;;35.55;34.68
66090;BME280;53113;45.602;11.904;2022-08-01T09:10:04;101243.15;;;35.65;34.11
66090;BME280;53113;45.602;11.904;2022-08-01T09:12:30;101245.16;;;35.74;33.16
66090;BME280;53113;45.602;11.904;2022-08-01T09:14:56;101241.88;;;35.84;32.88
66090;BME280;53113;45.602;11.904;2022-08-01T09:17:22;101239.96;;;35.98;32.25
66090;BME280;53113;45.602;11.904;2022-08-01T09:19:51;101239.54;;;36.10;32.33
66090;BME280;53113;45.602;11.904;2022-08-01T09:22:20;101240.23;;;36.27;32.27
66090;BME280;53113;45.602;11.904;2022-08-01T09:25:08;101235.64;;;36.42;32.38
66090;BME280;53113;45.602;11.904;2022-08-01T09:27:35;101233.75;;;36.60;32.14
66090;BME280;53113;45.602;11.904;2022-08-01T09:30:12;101239.43;;;36.76;31.67
66090;BME280;53113;45.602;11.904;2022-08-01T09:33:00;101234.42;;;36.91;31.61
66090;BME280;53113;45.602;11.904;2022-08-01T09:35:29;101235.48;;;37.11;31.36
66090;BME280;53113;45.602;11.904;2022-08-01T09:38:14;101236.04;;;37.28;30.95
66090;BME280;53113;45.602;11.904;2022-08-01T09:41:00;101234.75;;;37.45;30.62
66090;BME280;53113;45.602;11.904;2022-08-01T09:43:28;101231.92;;;37.59;30.34
66090;BME280;53113;45.602;11.904;2022-08-01T09:45:58;101227.11;;;37.70;30.36
66090;BME280;53113;45.602;11.904;2022-08-01T09:48:26;101227.52;;;37.81;30.08
66090;BME280;53113;45.602;11.904;2022-08-01T09:50:53;101221.39;;;37.94;30.01
66090;BME280;53113;45.602;11.904;2022-08-01T09:53:20;101222.29;;;38.07;29.54
66090;BME280;53113;45.602;11.904;2022-08-01T09:55:45;101221.05;;;38.21;29.25
66090;BME280;53113;45.602;11.904;2022-08-01T09:58:11;101215.30;;;38.31;29.23
66090;BME280;53113;45.602;11.904;2022-08-01T10:00:38;101217.09;;;38.44;29.02
66090;BME280;53113;45.602;11.904;2022-08-01T10:03:26;101216.16;;;38.55;27.96
66090;BME280;53113;45.602;11.904;2022-08-01T10:05:52;101215.59;;;38.68;27.14
66090;BME280;53113;45.602;11.904;2022-08-01T10:08:22;101209.81;;;38.78;26.76
66090;BME280;53113;45.602;11.904;2022-08-01T10:11:11;101213.17;;;38.86;26.37
66090;BME280;53113;45.602;11.904;2022-08-01T10:13:37;101208.07;;;38.92;26.23
66090;BME280;53113;45.602;11.904;2022-08-01T10:16:05;101201.02;;;38.98;26.04
66090;BME280;53113;45.602;11.904;2022-08-01T10:18:31;101200.04;;;39.05;26.06
66090;BME280;53113;45.602;11.904;2022-08-01T10:21:03;101195.83;;;39.16;26.04
66090;BME280;53113;45.602;11.904;2022-08-01T10:23:37;101191.90;;;39.25;26.08
66090;BME280;53113;45.602;11.904;2022-08-01T10:26:05;101192.11;;;39.38;25.93
66090;BME280;53113;45.602;11.904;2022-08-01T10:28:35;101191.77;;;39.53;25.72
66090;BME280;53113;45.602;11.904;2022-08-01T10:31:02;101194.34;;;39.66;25.68
66090;BME280;53113;45.602;11.904;2022-08-01T10:33:29;101192.63;;;39.82;25.45
66090;BME280;53113;45.602;11.904;2022-08-01T10:35:57;101189.36;;;39.94;25.18
66090;BME280;53113;45.602;11.904;2022-08-01T10:38:23;101188.39;;;40.07;24.90
66090;BME280;53113;45.602;11.904;2022-08-01T10:40:50;101182.33;;;40.19;24.45
66090;BME280;53113;45.602;11.904;2022-08-01T10:43:16;101180.42;;;40.28;24.15
66090;BME280;53113;45.602;11.904;2022-08-01T10:45:43;101180.04;;;40.37;23.98
66090;BME280;53113;45.602;11.904;2022-08-01T10:48:16;101171.27;;;40.44;23.92
66090;BME280;53113;45.602;11.904;2022-08-01T10:50:45;101172.79;;;40.58;23.96
66090;BME280;53113;45.602;11.904;2022-08-01T10:53:17;101172.98;;;40.72;23.46
66090;BME280;53113;45.602;11.904;2022-08-01T10:58:37;101162.36;;;40.91;22.83
66090;BME280;53113;45.602;11.904;2022-08-01T11:01:32;101155.23;;;40.98;22.64
66090;BME280;53113;45.602;11.904;2022-08-01T11:09:03;101154.15;;;41.31;22.35
66090;BME280;53113;45.602;11.904;2022-08-01T11:11:29;101145.39;;;41.44;22.33
66090;BME280;53113;45.602;11.904;2022-08-01T11:16:31;101142.67;;;41.68;21.76
66090;BME280;53113;45.602;11.904;2022-08-01T11:18:57;101137.78;;;41.80;21.73
66090;BME280;53113;45.602;11.904;2022-08-01T11:27:28;101122.06;;;42.21;21.49
66090;BME280;53113;45.602;11.904;2022-08-01T11:32:49;101118.51;;;42.56;21.01
66090;BME280;53113;45.602;11.904;2022-08-01T11:35:16;101113.30;;;42.74;20.89
66090;BME280;53113;45.602;11.904;2022-08-01T11:37:42;101106.06;;;42.89;20.70
66090;BME280;53113;45.602;11.904;2022-08-01T11:42:44;101097.67;;;43.05;20.16
66090;BME280;53113;45.602;11.904;2022-08-01T11:45:09;101097.78;;;43.10;19.93
66090;BME280;53113;45.602;11.904;2022-08-01T11:47:49;101098.31;;;43.11;19.77
66090;BME280;53113;45.602;11.904;2022-08-01T11:53:05;101085.13;;;43.17;19.54
66090;BME280;53113;45.602;11.904;2022-08-01T11:55:31;101086.34;;;43.27;19.64
66090;BME280;53113;45.602;11.904;2022-08-01T11:58:07;101084.48;;;43.39;19.23
66090;BME280;53113;45.602;11.904;2022-08-01T12:00:33;101078.30;;;43.49;18.92
66090;BME280;53113;45.602;11.904;2022-08-01T12:03:02;101071.26;;;43.58;19.33
66090;BME280;53113;45.602;11.904;2022-08-01T12:05:29;101067.59;;;43.67;19.26
66090;BME280;53113;45.602;11.904;2022-08-01T12:07:56;101066.58;;;43.74;18.69
66090;BME280;53113;45.602;11.904;2022-08-01T12:10:25;101066.48;;;43.80;18.38
66090;BME280;53113;45.602;11.904;2022-08-01T12:12:54;101063.14;;;43.84;17.92
66090;BME280;53113;45.602;11.904;2022-08-01T12:15:22;101065.18;;;43.88;17.78
66090;BME280;53113;45.602;11.904;2022-08-01T12:17:56;101067.77;;;43.93;17.73
66090;BME280;53113;45.602;11.904;2022-08-01T12:20:23;101063.10;;;43.98;17.94
66090;BME280;53113;45.602;11.904;2022-08-01T12:22:56;101062.25;;;44.05;17.99
66090;BME280;53113;45.602;11.904;2022-08-01T12:25:23;101053.71;;;44.14;17.74
66090;BME280;53113;45.602;11.904;2022-08-01T12:27:50;101050.11;;;44.25;17.88
66090;BME280;53113;45.602;11.904;2022-08-01T12:30:18;101045.48;;;44.39;17.33
66090;BME280;53113;45.602;11.904;2022-08-01T12:32:46;101041.82;;;44.51;17.06
66090;BME280;53113;45.602;11.904;2022-08-01T12:35:14;101033.89;;;44.61;17.24
66090;BME280;53113;45.602;11.904;2022-08-01T12:37:42;101030.55;;;44.70;16.78
66090;BME280;53113;45.602;11.904;2022-08-01T12:40:15;101023.09;;;44.79;16.83
66090;BME280;53113;45.602;11.904;2022-08-01T12:42:44;101015.52;;;44.90;16.85
66090;BME280;53113;45.602;11.904;2022-08-01T12:45:14;101022.41;;;44.95;17.12
66090;BME280;53113;45.602;11.904;2022-08-01T12:47:41;101023.42;;;44.98;16.99
66090;BME280;53113;45.602;11.904;2022-08-01T12:50:08;101017.25;;;44.98;16.69
66090;BME280;53113;45.602;11.904;2022-08-01T12:52:37;101015.36;;;45.03;16.49
66090;BME280;53113;45.602;11.904;2022-08-01T12:57:32;101011.66;;;45.02;16.45
66090;BME280;53113;45.602;11.904;2022-08-01T13:00:13;101019.71;;;45.06;16.30
66090;BME280;53113;45.602;11.904;2022-08-01T13:02:40;101013.91;;;45.14;16.08
66090;BME280;53113;45.602;11.904;2022-08-01T13:05:06;101010.27;;;45.21;15.80
66090;BME280;53113;45.602;11.904;2022-08-01T13:10:05;101010.75;;;45.34;15.76
66090;BME280;53113;45.602;11.904;2022-08-01T13:12:30;101010.92;;;45.39;15.52
66090;BME280;53113;45.602;11.904;2022-08-01T13:14:56;101012.80;;;45.42;15.55
66090;BME280;53113;45.602;11.904;2022-08-01T13:17:35;101009.67;;;45.39;15.58
66090;BME280;53113;45.602;11.904;2022-08-01T13:20:03;101010.45;;;45.37;16.43
66090;BME280;53113;45.602;11.904;2022-08-01T13:22:36;101012.33;;;45.36;16.93
66090;BME280;53113;45.602;11.904;2022-08-01T13:25:13;101008.16;;;45.33;17.17
66090;BME280;53113;45.602;11.904;2022-08-01T13:27:40;101003.63;;;45.32;17.46